createdAt,value
2023-04-13T00:01:00.229Z,80.11
2023-04-13T00:04:05.148Z,80.37
2023-04-13T00:07:14.596Z,79.86
2023-04-13T00:10:19.160Z,79.94
2023-04-13T00:13:21.901Z,80.89
2023-04-13T00:16:27.153Z,81.05
2023-04-13T00:19:31.445Z,81.47
2023-04-13T00:22:34.105Z,81.11
2023-04-13T00:25:36.949Z,81.17
2023-04-13T00:28:39.637Z,81.28
2023-04-13T00:31:42.872Z,81.06
2023-04-13T00:34:47.026Z,80.70
2023-04-13T00:37:49.835Z,80.26
2023-04-13T00:40:52.634Z,80.21
2023-04-13T00:43:55.290Z,79.98
2023-04-13T00:46:58.234Z,79.61
2023-04-13T00:50:04.733Z,79.75
2023-04-13T00:53:10.714Z,80.15
2023-04-13T00:56:14.782Z,79.76
2023-04-13T00:59:17.929Z,79.89
2023-04-13T01:02:24.783Z,80.24
2023-04-13T01:05:33.473Z,80.62
2023-04-13T01:08:39.600Z,79.95
2023-04-13T01:11:45.807Z,80.16
2023-04-13T01:14:56.818Z,81.28
2023-04-13T01:18:05.370Z,81.59
2023-04-13T01:21:13.241Z,81.61
2023-04-13T01:24:29.744Z,80.81
2023-04-13T01:27:44.328Z,79.79
2023-04-13T01:30:48.544Z,80.90
2023-04-13T01:33:51.473Z,80.59
2023-04-13T01:36:55.660Z,79.41
2023-04-13T01:39:58.503Z,79.23
2023-04-13T01:43:02.814Z,80.55
2023-04-13T01:46:11.231Z,80.18
2023-04-13T01:49:18.632Z,80.11
2023-04-13T01:52:23.556Z,79.76
2023-04-13T01:55:26.850Z,80.13
2023-04-13T01:58:33.676Z,79.17
2023-04-13T02:01:38.750Z,80.14
2023-04-13T02:04:41.892Z,79.27
2023-04-13T02:07:45.763Z,79.76
2023-04-13T02:10:50.176Z,80.22
2023-04-13T02:13:57.725Z,80.42
2023-04-13T02:17:00.743Z,80.61
2023-04-13T02:20:09.067Z,79.98
2023-04-13T02:23:14.674Z,80.04
2023-04-13T02:26:17.885Z,80.09
2023-04-13T02:29:22.694Z,79.53
2023-04-13T02:32:25.436Z,79.35
2023-04-13T02:35:28.486Z,79.95
2023-04-13T02:38:31.958Z,79.43
2023-04-13T02:41:35.175Z,78.77
2023-04-13T02:44:39.770Z,78.99
2023-04-13T02:47:42.727Z,79.32
2023-04-13T02:50:46.183Z,79.76
2023-04-13T02:53:49.149Z,79.57
2023-04-13T02:56:51.965Z,79.71
2023-04-13T02:59:56.005Z,79.00
2023-04-13T03:02:59.490Z,79.58
2023-04-13T03:06:02.479Z,79.70
2023-04-13T03:09:05.623Z,79.61
2023-04-13T03:12:09.261Z,79.48
2023-04-13T03:15:14.740Z,78.65
2023-04-13T03:18:17.609Z,79.63
2023-04-13T03:21:20.752Z,79.39
2023-04-13T03:24:23.479Z,79.48
2023-04-13T03:27:26.592Z,79.44
2023-04-13T03:30:30.835Z,79.04
2023-04-13T03:33:33.573Z,79.45
2023-04-13T03:36:36.447Z,79.07
2023-04-13T03:39:39.850Z,79.44
2023-04-13T03:42:42.679Z,78.81
2023-04-13T03:45:46.824Z,78.94
2023-04-13T03:48:49.649Z,78.71
2023-04-13T03:51:53.073Z,79.05
2023-04-13T03:54:56.658Z,78.81
2023-04-13T03:57:59.437Z,78.56
2023-04-13T04:01:03.582Z,78.18
2023-04-13T04:04:06.674Z,78.27
2023-04-13T04:07:09.472Z,77.85
2023-04-13T04:10:12.497Z,78.57
2023-04-13T04:13:15.549Z,78.13
2023-04-13T04:16:19.685Z,78.63
2023-04-13T04:19:22.483Z,78.34
2023-04-13T04:22:29.780Z,78.85
2023-04-13T04:25:33.675Z,78.33
2023-04-13T04:28:38.789Z,78.15
2023-04-13T04:31:44.165Z,78.13
2023-04-13T04:34:48.310Z,78.63
2023-04-13T04:37:51.021Z,78.68
2023-04-13T04:40:57.702Z,78.15
2023-04-13T04:44:03.502Z,78.10
2023-04-13T04:47:07.690Z,78.41
2023-04-13T04:50:11.411Z,78.62
2023-04-13T04:53:14.172Z,77.44
2023-04-13T04:56:17.039Z,77.81
2023-04-13T04:59:20.717Z,78.25
2023-04-13T05:02:25.005Z,77.78
2023-04-13T05:05:27.988Z,78.17
2023-04-13T05:08:30.757Z,78.54
2023-04-13T05:11:34.412Z,78.64
2023-04-13T05:14:37.262Z,77.87
2023-04-13T05:17:42.033Z,78.00
2023-04-13T05:20:44.980Z,77.74
2023-04-13T05:23:48.101Z,78.00
2023-04-13T05:26:50.953Z,77.44
2023-04-13T05:29:53.668Z,78.23
2023-04-13T05:32:57.783Z,78.58
2023-04-13T05:36:01.306Z,77.61
2023-04-13T05:39:05.769Z,77.95
2023-04-13T05:42:08.641Z,77.67
2023-04-13T05:45:12.105Z,77.90
2023-04-13T05:48:16.378Z,76.45
2023-04-13T05:51:20.378Z,76.63
2023-04-13T05:54:23.244Z,75.93
2023-04-13T05:57:26.152Z,75.42
2023-04-13T06:00:29.427Z,75.24
2023-04-13T06:03:34.779Z,76.50
2023-04-13T06:06:38.072Z,75.85
2023-04-13T06:09:40.762Z,76.61
2023-04-13T06:12:44.795Z,76.00
2023-04-13T06:15:47.470Z,75.52
2023-04-13T06:18:51.717Z,76.14
2023-04-13T06:21:54.566Z,76.01
2023-04-13T06:24:57.253Z,75.68
2023-04-13T06:28:02.168Z,74.46
2023-04-13T06:31:05.361Z,74.71
2023-04-13T06:34:09.719Z,73.91
2023-04-13T06:37:12.602Z,74.11
2023-04-13T06:40:15.806Z,73.07
2023-04-13T06:43:29.015Z,72.26
2023-04-13T06:46:32.570Z,72.07
2023-04-13T06:49:37.043Z,69.96
2023-04-13T06:52:39.801Z,70.05
2023-04-13T06:55:42.621Z,71.01
2023-04-13T06:58:45.868Z,72.11
2023-04-13T07:01:48.672Z,71.16
2023-04-13T07:04:52.992Z,70.61
2023-04-13T07:07:55.756Z,70.42
2023-04-13T07:10:58.829Z,70.65
2023-04-13T07:14:01.670Z,70.31
2023-04-13T07:17:04.482Z,69.89
2023-04-13T07:20:10.159Z,70.66
2023-04-13T07:23:12.859Z,70.23
2023-04-13T07:26:16.217Z,68.59
2023-04-13T07:29:19.271Z,68.89
2023-04-13T07:32:24.492Z,68.19
2023-04-13T07:35:32.359Z,67.91
2023-04-13T07:38:35.066Z,68.98
2023-04-13T07:41:38.290Z,67.50
2023-04-13T07:44:41.163Z,67.26
2023-04-13T07:47:43.882Z,67.23
2023-04-13T07:50:48.338Z,63.36
2023-04-13T07:53:53.250Z,64.39
2023-04-13T07:56:56.604Z,64.03
2023-04-13T07:59:59.569Z,63.00
2023-04-13T08:03:02.455Z,61.85
2023-04-13T08:06:09.711Z,62.16
2023-04-13T08:09:12.411Z,57.85
2023-04-13T08:12:15.447Z,58.72
2023-04-13T08:15:18.211Z,56.65
2023-04-13T08:18:20.982Z,58.84
2023-04-13T08:21:26.420Z,55.30
2023-04-13T08:24:29.296Z,56.37
2023-04-13T08:27:34.759Z,53.69
2023-04-13T08:30:38.038Z,54.95
2023-04-13T08:33:41.174Z,52.14
2023-04-13T08:36:46.261Z,53.15
2023-04-13T08:39:49.215Z,51.66
2023-04-13T08:42:53.180Z,54.95
2023-04-13T08:45:56.009Z,53.85
2023-04-13T08:49:00.203Z,53.23
2023-04-13T08:52:09.204Z,52.18
2023-04-13T08:55:12.647Z,49.68
2023-04-13T08:58:19.701Z,50.81
2023-04-13T09:01:23.741Z,51.97
2023-04-13T09:04:31.873Z,50.69
2023-04-13T09:07:38.786Z,50.99
2023-04-13T09:10:42.228Z,51.40
2023-04-13T09:13:50.245Z,51.32
2023-04-13T09:16:53.579Z,52.48
2023-04-13T09:19:57.445Z,49.62
2023-04-13T09:23:03.722Z,48.51
2023-04-13T09:26:08.431Z,46.02
2023-04-13T09:29:14.315Z,45.90
2023-04-13T09:32:20.700Z,43.97
2023-04-13T09:35:23.538Z,44.53
2023-04-13T09:38:32.950Z,45.80
2023-04-13T09:41:37.266Z,46.78
2023-04-13T09:44:40.645Z,46.05
2023-04-13T09:47:43.656Z,44.84
2023-04-13T09:50:47.025Z,46.15
2023-04-13T09:53:51.185Z,44.19
2023-04-13T09:56:55.646Z,41.20
2023-04-13T10:00:01.495Z,41.27
2023-04-13T10:03:07.618Z,40.46
2023-04-13T10:06:10.992Z,41.11
2023-04-13T10:09:15.710Z,40.27
2023-04-13T10:12:18.823Z,42.56
2023-04-13T10:15:33.548Z,41.31
2023-04-13T10:18:47.208Z,39.59
2023-04-13T10:21:52.470Z,39.49
2023-04-13T10:24:56.759Z,38.86
2023-04-13T10:28:00.687Z,38.64
2023-04-13T10:31:05.632Z,41.46
2023-04-13T10:34:08.701Z,42.02
2023-04-13T10:37:19.352Z,42.92
2023-04-13T10:40:23.697Z,42.08
2023-04-13T10:43:28.467Z,42.95
2023-04-13T10:46:31.517Z,42.29
2023-04-13T10:49:34.419Z,40.51
2023-04-13T10:52:37.284Z,40.04
2023-04-13T10:55:41.334Z,40.46
2023-04-13T10:58:44.029Z,43.04
2023-04-13T11:01:47.417Z,42.96
2023-04-13T11:04:50.837Z,42.40
2023-04-13T11:07:55.639Z,42.59
2023-04-13T11:10:59.958Z,42.20
2023-04-13T11:14:03.668Z,43.17
2023-04-13T11:17:07.988Z,41.48
2023-04-13T11:20:12.050Z,41.75
2023-04-13T11:23:18.265Z,43.15
2023-04-13T11:26:33.850Z,41.79
2023-04-13T11:29:36.700Z,42.39
2023-04-13T11:32:42.868Z,42.91
2023-04-13T11:35:49.742Z,42.29
2023-04-13T11:38:54.393Z,41.94
2023-04-13T11:41:58.735Z,41.89
2023-04-13T11:45:01.785Z,41.52
2023-04-13T11:48:06.254Z,39.85
2023-04-13T11:51:11.057Z,39.04
2023-04-13T11:54:14.326Z,38.14
2023-04-13T11:57:19.191Z,39.90
2023-04-13T12:00:26.318Z,39.96
2023-04-13T12:03:42.008Z,40.90
2023-04-13T12:06:53.190Z,40.96
2023-04-13T12:09:58.975Z,40.46
2023-04-13T12:13:20.312Z,41.88
2023-04-13T12:19:43.789Z,41.73
2023-04-13T12:22:57.667Z,42.71
2023-04-13T12:26:32.132Z,42.33
2023-04-13T12:29:30.030Z,41.20
2023-04-13T12:32:33.704Z,41.83
2023-04-13T12:35:37.167Z,41.49
2023-04-13T12:38:40.606Z,41.54
2023-04-13T12:41:43.346Z,42.59
2023-04-13T12:44:47.532Z,42.10
2023-04-13T12:47:50.368Z,42.70
2023-04-13T12:50:53.085Z,39.63
2023-04-13T12:53:56.078Z,40.51
2023-04-13T12:56:59.664Z,38.81
2023-04-13T13:00:08.863Z,38.81
2023-04-13T13:03:14.615Z,40.07
2023-04-13T13:06:17.800Z,40.08
2023-04-13T13:09:20.818Z,39.10
2023-04-13T13:12:23.764Z,39.66
2023-04-13T13:15:27.860Z,39.59
2023-04-13T13:18:46.666Z,39.43
2023-04-13T13:21:52.218Z,39.71
2023-04-13T13:24:55.121Z,38.74
2023-04-13T13:31:05.136Z,39.03
2023-04-13T13:34:07.962Z,38.03
2023-04-13T13:37:10.792Z,38.17
2023-04-13T13:40:14.209Z,38.76
2023-04-13T13:43:21.229Z,39.81
2023-04-13T13:46:25.414Z,38.84
2023-04-13T13:49:28.367Z,39.28
2023-04-13T13:52:33.523Z,39.62
2023-04-13T13:55:36.314Z,38.81
2023-04-13T13:58:39.146Z,39.48
2023-04-13T14:01:43.276Z,38.77
2023-04-13T14:04:46.393Z,39.21
2023-04-13T14:07:49.188Z,38.91
2023-04-13T14:10:52.034Z,38.86
2023-04-13T14:13:55.083Z,39.19
2023-04-13T14:16:59.154Z,39.05
2023-04-13T14:20:02.360Z,40.47
2023-04-13T14:23:05.233Z,39.67
2023-04-13T14:26:08.909Z,40.78
2023-04-13T14:29:12.065Z,41.28
2023-04-13T14:32:16.457Z,40.52
2023-04-13T14:35:20.136Z,40.45
2023-04-13T14:38:23.687Z,40.85
2023-04-13T14:41:26.552Z,42.05
2023-04-13T14:44:29.490Z,40.77
2023-04-13T14:47:33.636Z,40.96
2023-04-13T14:50:39.253Z,41.33
2023-04-13T14:53:41.969Z,42.12
2023-04-13T14:56:44.727Z,41.90
2023-04-13T14:59:47.468Z,41.79
2023-04-13T15:02:52.683Z,40.61
2023-04-13T15:06:03.260Z,39.97
2023-04-13T15:09:09.562Z,40.78
2023-04-13T15:12:13.762Z,43.21
2023-04-13T15:15:16.981Z,41.19
2023-04-13T15:18:21.162Z,41.25
2023-04-13T15:21:24.073Z,41.18
2023-04-13T15:24:26.868Z,40.59
2023-04-13T15:27:29.795Z,41.40
2023-04-13T15:30:34.568Z,41.85
2023-04-13T15:33:39.072Z,41.71
2023-04-13T15:36:41.894Z,42.43
2023-04-13T15:39:44.640Z,42.61
2023-04-13T15:42:47.512Z,41.83
2023-04-13T15:45:50.321Z,42.45
2023-04-13T15:48:54.567Z,42.46
2023-04-13T15:51:57.401Z,42.23
2023-04-13T15:55:00.386Z,43.50
2023-04-13T15:58:03.902Z,43.23
2023-04-13T16:01:08.017Z,42.66
2023-04-13T16:04:12.518Z,42.09
2023-04-13T16:07:15.576Z,42.01
2023-04-13T16:10:19.139Z,43.00
2023-04-13T16:13:22.599Z,43.19
2023-04-13T16:16:27.352Z,43.02
2023-04-13T16:19:32.674Z,43.07
2023-04-13T16:22:36.462Z,43.16
2023-04-13T16:25:40.126Z,43.01
2023-04-13T16:28:42.901Z,42.87
2023-04-13T16:31:47.550Z,43.40
2023-04-13T16:34:51.812Z,43.71
2023-04-13T16:37:54.624Z,44.04
2023-04-13T16:40:59.676Z,43.86
2023-04-13T16:44:03.038Z,43.38
2023-04-13T16:47:06.031Z,44.39
2023-04-13T16:50:11.217Z,44.10
2023-04-13T16:53:15.965Z,44.42
2023-04-13T16:56:19.960Z,45.11
2023-04-13T16:59:22.737Z,44.81
2023-04-13T17:02:30.955Z,44.67
2023-04-13T17:05:36.021Z,44.27
2023-04-13T17:08:38.769Z,45.11
2023-04-13T17:11:41.476Z,45.71
2023-04-13T17:14:45.438Z,46.77
2023-04-13T17:17:48.655Z,47.10
2023-04-13T17:20:56.293Z,46.84
2023-04-13T17:23:59.053Z,47.36
2023-04-13T17:27:01.859Z,47.88
2023-04-13T17:30:05.346Z,48.46
2023-04-13T17:33:08.266Z,48.47
2023-04-13T17:36:12.602Z,49.60
2023-04-13T17:39:15.594Z,50.35
2023-04-13T17:42:18.702Z,51.75
2023-04-13T17:45:21.812Z,51.76
2023-04-13T17:48:24.738Z,52.71
2023-04-13T17:51:30.584Z,53.11
2023-04-13T17:54:34.121Z,53.75
2023-04-13T17:57:36.974Z,54.43
2023-04-13T18:00:39.801Z,54.84
2023-04-13T18:03:42.983Z,55.43
2023-04-13T18:06:47.424Z,55.47
2023-04-13T18:09:50.148Z,56.39
2023-04-13T18:12:53.017Z,56.12
2023-04-13T18:15:56.041Z,56.50
2023-04-13T18:18:59.473Z,56.56
2023-04-13T18:22:03.726Z,56.47
2023-04-13T18:25:06.708Z,56.95
2023-04-13T18:28:09.526Z,57.35
2023-04-13T18:31:13.432Z,57.31
2023-04-13T18:34:16.432Z,57.31
2023-04-13T18:37:20.668Z,58.10
2023-04-13T18:40:23.608Z,58.66
2023-04-13T18:43:26.463Z,58.80
2023-04-13T18:46:29.220Z,59.29
2023-04-13T18:49:32.113Z,59.54
2023-04-13T18:52:36.235Z,59.46
2023-04-13T18:55:39.602Z,59.85
2023-04-13T18:58:42.477Z,60.04
2023-04-13T19:01:46.412Z,59.65
2023-04-13T19:04:49.331Z,60.33
2023-04-13T19:08:00.856Z,60.67
2023-04-13T19:11:03.793Z,60.88
2023-04-13T19:14:06.470Z,60.93
2023-04-13T19:17:09.158Z,61.39
2023-04-13T19:20:13.274Z,61.53
2023-04-13T19:23:17.342Z,61.69
2023-04-13T19:26:20.177Z,62.08
2023-04-13T19:29:23.062Z,62.50
2023-04-13T19:32:26.171Z,62.47
2023-04-13T19:35:30.159Z,62.88
2023-04-13T19:38:34.213Z,63.26
2023-04-13T19:41:38.884Z,63.66
2023-04-13T19:44:41.737Z,63.71
2023-04-13T19:47:44.832Z,63.67
2023-04-13T19:50:47.743Z,64.24
2023-04-13T19:53:52.709Z,64.00
2023-04-13T19:56:55.667Z,63.84
2023-04-13T19:59:58.988Z,64.23
2023-04-13T20:03:03.328Z,64.21
2023-04-13T20:06:06.476Z,63.60
2023-04-13T20:09:11.911Z,64.83
2023-04-13T20:12:14.693Z,65.50
2023-04-13T20:15:17.612Z,65.15
2023-04-13T20:18:20.360Z,65.41
2023-04-13T20:21:23.115Z,65.60
2023-04-13T20:24:27.328Z,65.17
2023-04-13T20:27:30.322Z,65.15
2023-04-13T20:30:33.455Z,65.75
2023-04-13T20:33:36.151Z,65.80
2023-04-13T20:36:39.007Z,65.49
2023-04-13T20:39:50.033Z,66.23
2023-04-13T20:42:53.039Z,66.00
2023-04-13T20:45:57.405Z,65.35
2023-04-13T20:49:02.320Z,65.47
2023-04-13T20:52:05.267Z,65.78
2023-04-13T20:55:11.617Z,66.98
2023-04-13T20:58:15.912Z,66.26
2023-04-13T21:01:18.977Z,66.26
2023-04-13T21:04:21.845Z,67.53
2023-04-13T21:07:24.599Z,66.90
2023-04-13T21:10:28.893Z,67.32
2023-04-13T21:13:31.629Z,67.63
2023-04-13T21:16:34.502Z,67.58
2023-04-13T21:19:38.002Z,66.41
2023-04-13T21:22:41.008Z,67.38
2023-04-13T21:25:45.353Z,66.79
2023-04-13T21:28:48.092Z,66.75
2023-04-13T21:31:50.956Z,66.33
2023-04-13T21:34:55.152Z,67.04
2023-04-13T21:37:57.873Z,67.48
2023-04-13T21:41:02.174Z,67.46
2023-04-13T21:44:04.892Z,67.24
2023-04-13T21:47:07.771Z,68.03
2023-04-13T21:50:11.205Z,68.14
2023-04-13T21:53:14.067Z,68.33
2023-04-13T21:56:18.163Z,68.72
2023-04-13T21:59:21.045Z,68.23
2023-04-13T22:02:24.556Z,67.93
2023-04-13T22:05:27.359Z,68.58
2023-04-13T22:08:30.160Z,68.90
2023-04-13T22:11:34.254Z,68.56
2023-04-13T22:14:37.101Z,68.70
2023-04-13T22:17:39.844Z,68.43
2023-04-13T22:20:42.917Z,68.84
2023-04-13T22:23:45.648Z,68.18
2023-04-13T22:26:49.788Z,68.87
2023-04-13T22:29:55.764Z,69.28
2023-04-13T22:32:58.686Z,68.73
2023-04-13T22:36:01.562Z,68.76
2023-04-13T22:39:04.296Z,69.65
2023-04-13T22:42:08.496Z,69.36
2023-04-13T22:45:12.191Z,68.84
2023-04-13T22:48:14.886Z,69.71
2023-04-13T22:51:17.656Z,70.27
2023-04-13T22:54:20.319Z,69.95
2023-04-13T22:57:24.584Z,69.67
2023-04-13T23:00:27.360Z,70.17
2023-04-13T23:03:30.289Z,70.48
2023-04-13T23:06:36.042Z,70.50
2023-04-13T23:09:38.822Z,70.15
2023-04-13T23:12:43.025Z,70.37
2023-04-13T23:15:45.772Z,70.48
2023-04-13T23:18:48.511Z,70.44
2023-04-13T23:21:51.241Z,70.82
2023-04-13T23:24:54.115Z,71.31
2023-04-13T23:27:58.131Z,71.49
2023-04-13T23:31:04.910Z,70.91
2023-04-13T23:34:07.618Z,70.96
2023-04-13T23:37:10.503Z,71.14
2023-04-13T23:40:13.715Z,70.58
2023-04-13T23:43:17.949Z,71.55
2023-04-13T23:46:22.623Z,71.42
2023-04-13T23:49:25.414Z,71.65
2023-04-13T23:52:28.908Z,71.45
2023-04-13T23:55:31.946Z,71.21
2023-04-13T23:58:36.160Z,71.60
